Atria — FICZ — position and weather

sailwx.info

Track history (hours):
 
Tides and Currents Weather Stations Pressure Air Temp Water Temp Dewpoint Dewpoint Depression Visibility Wind Speed Wind Dir Waves Ship Positions

Atria

Last reported at 2018-Jun-23 03:15 UTC. Time now 2018-Jun-23 12:24 UTC.
Position N 37°13' W 001°04'.

Length 184 m; draft 11.1 m.

Type: Tanker. MMSI: 226099000.

Date/timePositionNaut miles runAvg speedWind from/ knotsBaromVisibWave heightAir tempDewpointWater temp
2018-Jun-23 03:15N 37°13' W 001°04'312.4
2018-Jun-23 03:01N 37°15' W 001°01'612.6
2018-Jun-23 02:30N 37°19' W 000°55'712.9
2018-Jun-23 01:59N 37°23' W 000°49'613.1
2018-Jun-23 01:30N 37°28' W 000°43'612.8
2018-Jun-23 01:00N 37°32' W 000°37'612.6
2018-Jun-23 00:31N 37°36' W 000°31'712.8
2018-Jun-23 00:00N 37°42' W 000°26'612.7
2018-Jun-22 23:30N 37°47' W 000°22'612.8
2018-Jun-22 23:00N 37°52' W 000°17'612.9
2018-Jun-22 22:31N 37°57' W 000°13'1212.9
2018-Jun-22 21:36N 38°07' W 000°04'113.1
2018-Jun-22 21:31N 38°07' W 000°03'713.0
2018-Jun-22 21:00N 38°12' E 000°03'713.0
2018-Jun-22 20:27N 38°18' E 000°09'613.0
2018-Jun-22 20:00N 38°22' E 000°13'713.2
2018-Jun-22 19:30N 38°28' E 000°18'613.2
2018-Jun-22 19:00N 38°33' E 000°23'612.9
2018-Jun-22 18:30N 38°38' E 000°28'712.8
2018-Jun-22 17:57N 38°44' E 000°33'612.6
2018-Jun-22 17:30N 38°49' E 000°38'612.5
2018-Jun-22 17:00N 38°54' E 000°43'712.3
2018-Jun-22 16:27N 38°59' E 000°48'1512.5
2018-Jun-22 15:17N 39°10' E 000°59'512.7
2018-Jun-22 14:51N 39°15' E 001°03'412.7
2018-Jun-22 14:30N 39°18' E 001°07'712.8
2018-Jun-22 14:00N 39°24' E 001°12'2112.9
2018-Jun-22 12:23N 39°40' E 001°29'5113.0
2018-Jun-22 08:26N 40°21' E 002°08'713.0
2018-Jun-22 07:56N 40°26' E 002°14'712.8
2018-Jun-22 07:25N 40°32' E 002°19'612.5
2018-Jun-22 06:55N 40°37' E 002°24'713.0
2018-Jun-22 06:25N 40°42' E 002°29'613.2
2018-Jun-22 05:58N 40°47' E 002°33'613.1
2018-Jun-22 05:30N 40°51' E 002°38'612.8
2018-Jun-22 05:00N 40°57' E 002°44'612.8
2018-Jun-22 04:30N 41°02' E 002°49'713.0
2018-Jun-22 04:00N 41°07' E 002°54'713.2
2018-Jun-22 03:30N 41°12' E 002°59'713.1
2018-Jun-22 03:00N 41°17' E 003°04'613.1
2018-Jun-22 02:30N 41°23' E 003°10'612.9
2018-Jun-22 02:00N 41°28' E 003°15'612.7
2018-Jun-22 01:31N 41°33' E 003°20'612.9
2018-Jun-22 01:00N 41°38' E 003°25'8613.1
2018-Jun-21 18:25N 42°47' E 004°35'612.9
2018-Jun-21 17:59N 42°51' E 004°40'612.8
2018-Jun-21 17:30N 42°56' E 004°45'612.7
2018-Jun-21 17:00N 43°01' E 004°50'612.3
2018-Jun-21 16:31N 43°06' E 004°55'2 4.6
2018-Jun-21 16:01N 43°08' E 004°57'5 9.7
2018-Jun-21 15:30N 43°12' E 005°01'612.8
2018-Jun-21 15:01N 43°18' E 004°59'510.0
2018-Jun-21 14:30N 43°23' E 004°58'1 2.5
2018-Jun-21 14:00N 43°24' E 004°60'0 0.0
2018-Jun-21 13:28N 43°24' E 004°60'0 0.0
2018-Jun-21 12:55N 43°24' E 004°60'0 0.0
2018-Jun-21 12:28N 43°24' E 004°60'0 0.0
2018-Jun-21 11:58N 43°24' E 004°60'0 0.0
2018-Jun-21 11:28N 43°24' E 004°60'0 0.0
2018-Jun-21 10:58N 43°24' E 004°60'0 0.0
2018-Jun-21 10:28N 43°24' E 004°60'0 0.0
2018-Jun-21 09:58N 43°24' E 004°60'0 0.0
2018-Jun-21 09:28N 43°24' E 004°60'0 0.0
2018-Jun-21 08:46N 43°24' E 004°60'0 0.0
2018-Jun-21 08:28N 43°24' E 004°60'0 0.0
2018-Jun-21 07:58N 43°24' E 004°60'0 0.0
2018-Jun-21 07:25N 43°24' E 004°60'0 0.0
2018-Jun-21 06:58N 43°24' E 004°60'0 0.0
2018-Jun-21 06:28N 43°24' E 004°60'0 0.0
2018-Jun-21 05:58N 43°24' E 004°60'0 0.0
2018-Jun-21 05:28N 43°24' E 004°60'0 0.0
2018-Jun-21 04:58N 43°24' E 004°60'0 0.0
2018-Jun-21 04:28N 43°24' E 004°60'0 0.0
2018-Jun-21 03:58N 43°24' E 004°60'0 0.0
2018-Jun-21 03:28N 43°24' E 004°60'0 0.0
2018-Jun-21 02:58N 43°24' E 004°60'0 0.0
2018-Jun-21 02:28N 43°24' E 004°60'0 0.0
2018-Jun-21 01:58N 43°24' E 004°60'0 0.0
2018-Jun-21 01:28N 43°24' E 004°60'0 0.0
2018-Jun-21 00:58N 43°24' E 004°60'0 0.0
2018-Jun-21 00:28N 43°24' E 004°60'0 0.0
2018-Jun-20 23:58N 43°24' E 004°60'0 0.0
2018-Jun-20 23:28N 43°24' E 004°60'0 0.0
2018-Jun-20 22:58N 43°24' E 004°60'0 0.0
2018-Jun-20 22:25N 43°24' E 004°60'0 0.0
2018-Jun-20 21:58N 43°24' E 004°60'0 0.0
2018-Jun-20 21:28N 43°24' E 004°60'0 0.0
2018-Jun-20 20:58N 43°24' E 004°60'0 0.0
2018-Jun-20 20:25N 43°24' E 004°60'0 0.0
2018-Jun-20 19:55N 43°24' E 004°60'0 0.0
2018-Jun-20 19:28N 43°24' E 004°60'0 0.0
2018-Jun-20 18:55N 43°24' E 004°60'0 0.0
2018-Jun-20 18:28N 43°24' E 004°60'0 0.0
2018-Jun-20 17:55N 43°24' E 004°60'0 0.0
2018-Jun-20 17:28N 43°24' E 004°60'0 0.0
2018-Jun-20 16:58N 43°24' E 004°60'0 0.0
2018-Jun-20 16:25N 43°24' E 004°60'0 0.0
2018-Jun-20 15:55N 43°24' E 004°60'0 0.0
2018-Jun-20 15:25N 43°24' E 004°60'0 0.0
2018-Jun-20 14:55N 43°24' E 004°60'0 0.0
2018-Jun-20 14:28N 43°24' E 004°60'0 0.0
2018-Jun-20 13:58N 43°24' E 004°60'0 0.0
2018-Jun-20 13:28N 43°24' E 004°60'0 0.0
2018-Jun-20 12:55N 43°24' E 004°60'0 0.0
2018-Jun-20 12:28N 43°24' E 004°60'0 0.0
2018-Jun-20 11:58N 43°24' E 004°60'0 0.0
2018-Jun-20 11:25N 43°24' E 004°60'0 0.0
2018-Jun-20 10:58N 43°24' E 004°60'0 0.0
2018-Jun-20 10:28N 43°24' E 004°60'0 0.0
2018-Jun-20 09:58N 43°24' E 004°60'0 0.0
2018-Jun-20 09:25N 43°24' E 004°60'0 0.0
2018-Jun-20 08:58N 43°24' E 004°60'0 0.0
2018-Jun-20 08:28N 43°24' E 004°60'0 0.0
2018-Jun-20 07:58N 43°24' E 004°60'0 0.0
2018-Jun-20 07:28N 43°24' E 004°60'0 0.0
2018-Jun-20 06:58N 43°24' E 004°60'0 0.0
2018-Jun-20 06:28N 43°24' E 004°60'0 0.0
2018-Jun-20 05:58N 43°24' E 004°60'0 0.0
2018-Jun-20 05:28N 43°24' E 004°60'0 0.0
2018-Jun-20 04:58N 43°24' E 004°60'0 0.0
2018-Jun-20 04:25N 43°24' E 004°60'0 0.0
2018-Jun-20 03:58N 43°24' E 004°60'0 0.0
2018-Jun-20 03:28N 43°24' E 004°60'0 0.0
2018-Jun-20 02:55N 43°24' E 004°60'0 0.0
2018-Jun-20 02:28N 43°24' E 004°60'0 0.0
2018-Jun-20 01:58N 43°24' E 004°60'0 0.0
2018-Jun-20 01:28N 43°24' E 004°60'0 0.0
2018-Jun-20 00:58N 43°24' E 004°60'0 0.0
2018-Jun-20 00:28N 43°24' E 004°60'0 0.0
2018-Jun-19 23:55N 43°24' E 004°60'0 0.0
2018-Jun-19 23:28N 43°24' E 004°60'0 0.0
2018-Jun-19 22:55N 43°24' E 004°60'0 0.0
2018-Jun-19 22:25N 43°24' E 004°60'0 0.0
2018-Jun-19 21:55N 43°24' E 004°60'0 0.0
2018-Jun-19 21:25N 43°24' E 004°60'0 0.0
2018-Jun-19 20:58N 43°24' E 004°60'0 0.0
2018-Jun-19 20:28N 43°24' E 004°60'0 0.0
2018-Jun-19 19:58N 43°24' E 004°60'0 0.0
2018-Jun-19 19:25N 43°24' E 004°60'0 0.0
2018-Jun-19 18:58N 43°24' E 004°60'0 0.0
2018-Jun-19 18:25N 43°24' E 004°60'0 0.0
2018-Jun-19 17:58N 43°24' E 004°60'0 0.0
2018-Jun-19 17:28N 43°24' E 004°60'0 0.0
2018-Jun-19 16:58N 43°24' E 004°60'0 0.0
2018-Jun-19 16:28N 43°24' E 004°60'0 0.0
2018-Jun-19 15:58N 43°24' E 004°60'0 0.0
2018-Jun-19 15:28N 43°24' E 004°60'0 0.0
2018-Jun-19 14:58N 43°24' E 004°60'0 0.0
2018-Jun-19 14:28N 43°24' E 004°60'0 0.0
2018-Jun-19 13:55N 43°24' E 004°60'0 0.0
2018-Jun-19 13:28N 43°24' E 004°60'0 0.0
2018-Jun-19 12:55N 43°24' E 004°60'0 0.0
2018-Jun-19 12:28N 43°24' E 004°60'0 0.0
2018-Jun-19 11:58N 43°24' E 004°60'0 0.0
2018-Jun-19 11:28N 43°24' E 004°60'0 0.0
2018-Jun-19 10:58N 43°24' E 004°60'0 0.0
2018-Jun-19 10:28N 43°24' E 004°60'0 0.0
2018-Jun-19 09:58N 43°24' E 004°60'0 0.0
2018-Jun-19 09:28N 43°24' E 004°60'0 0.0
2018-Jun-19 08:55N 43°24' E 004°60'0 0.0
2018-Jun-19 08:28N 43°24' E 004°60'0 0.0
2018-Jun-19 07:58N 43°24' E 004°60'0 0.0
2018-Jun-19 07:28N 43°24' E 004°60'0 0.0
2018-Jun-19 06:55N 43°24' E 004°60'0 0.0
2018-Jun-19 06:25N 43°24' E 004°60'0 0.0
2018-Jun-19 05:58N 43°24' E 004°60'0 0.0
2018-Jun-19 05:28N 43°24' E 004°60'0 0.0
2018-Jun-19 04:55N 43°24' E 004°60'0 0.0
2018-Jun-19 04:28N 43°24' E 004°60'0 0.0
2018-Jun-19 03:55N 43°24' E 004°60'0 0.0
2018-Jun-19 03:28N 43°24' E 004°60'0 0.0
2018-Jun-19 02:58N 43°24' E 004°60'0 0.0
2018-Jun-19 02:28N 43°24' E 004°60'0 0.0
2018-Jun-19 01:58N 43°24' E 004°60'0 0.0
2018-Jun-19 01:28N 43°24' E 004°60'0 0.0
2018-Jun-19 00:58N 43°24' E 004°60'0 0.0
2018-Jun-19 00:28N 43°24' E 004°60'0 0.0
2018-Jun-18 23:58N 43°24' E 004°60'0 0.0
2018-Jun-18 23:25N 43°24' E 004°60'0 0.0
2018-Jun-18 22:55N 43°24' E 004°60'0 0.0
2018-Jun-18 22:28N 43°24' E 004°60'0 0.0
2018-Jun-18 21:58N 43°24' E 004°60'0 0.0
2018-Jun-18 21:28N 43°24' E 004°60'0 0.0
2018-Jun-18 20:58N 43°24' E 004°60'0 0.0
2018-Jun-18 20:28N 43°24' E 004°60'0 0.0
2018-Jun-18 19:58N 43°24' E 004°60'0 0.0
2018-Jun-18 19:28N 43°24' E 004°60'0 0.0
2018-Jun-18 18:55N 43°24' E 004°60'0 0.0
2018-Jun-18 18:28N 43°24' E 004°60'0 0.0
2018-Jun-18 17:55N 43°24' E 004°60'0 0.0
2018-Jun-18 17:28N 43°24' E 004°60'0 0.0
2018-Jun-18 16:58N 43°24' E 004°60'0 0.0
2018-Jun-18 16:28N 43°24' E 004°60'0 0.0
2018-Jun-18 15:58N 43°24' E 004°60'0 0.0
2018-Jun-18 15:19N 43°24' E 004°60'0 0.0
2018-Jun-18 14:58N 43°24' E 004°60'0 0.0
2018-Jun-18 14:28N 43°24' E 004°60'0 0.0
2018-Jun-18 13:58N 43°24' E 004°60'0 0.0
2018-Jun-18 13:28N 43°24' E 004°60'0 0.0
2018-Jun-18 12:58N 43°24' E 004°60'0 0.0
2018-Jun-18 12:28N 43°24' E 004°60'0 0.0
2018-Jun-18 11:55N 43°24' E 004°60'0 0.0
2018-Jun-18 11:25N 43°24' E 004°60'0 0.0
2018-Jun-18 10:58N 43°24' E 004°60'0 0.0
2018-Jun-18 10:25N 43°24' E 004°60'0 0.0
2018-Jun-18 09:58N 43°24' E 004°60'0 0.0
2018-Jun-18 09:25N 43°24' E 004°60'0 0.0
2018-Jun-18 08:58N 43°24' E 004°60'0 0.0
2018-Jun-18 08:28N 43°24' E 004°60'0 0.0
2018-Jun-18 07:58N 43°24' E 004°60'0 0.0
2018-Jun-18 07:28N 43°24' E 004°60'0 0.0
2018-Jun-18 06:58N 43°24' E 004°60'0 0.0
2018-Jun-18 06:28N 43°24' E 004°60'0 0.0
2018-Jun-18 05:58N 43°24' E 004°60'0 0.0
2018-Jun-18 05:28N 43°24' E 004°60'0 0.0
2018-Jun-18 04:55N 43°24' E 004°60'0 0.0
2018-Jun-18 04:25N 43°24' E 004°60'0 0.0
2018-Jun-18 03:58N 43°24' E 004°60'0 0.0
2018-Jun-18 03:28N 43°24' E 004°60'0 0.0
2018-Jun-18 02:58N 43°24' E 004°60'0 0.0
2018-Jun-18 02:28N 43°24' E 004°60'0 0.0
2018-Jun-18 01:58N 43°24' E 004°60'0 0.0
2018-Jun-18 01:25N 43°24' E 004°60'0 0.0
2018-Jun-18 00:58N 43°24' E 004°60'0 0.0
2018-Jun-18 00:28N 43°24' E 004°60'0 0.0
2018-Jun-17 23:58N 43°24' E 004°60'0 0.0
2018-Jun-17 23:28N 43°24' E 004°60'0 0.0
2018-Jun-17 22:58N 43°24' E 004°60'0 0.0
2018-Jun-17 22:28N 43°24' E 004°60'0 0.0
2018-Jun-17 21:58N 43°24' E 004°60'0 0.0
2018-Jun-17 21:28N 43°24' E 004°60'0 0.0
2018-Jun-17 20:58N 43°24' E 004°60'0 0.0
2018-Jun-17 20:28N 43°24' E 004°60'0 0.0
2018-Jun-17 19:58N 43°24' E 004°60'0 0.0
2018-Jun-17 19:28N 43°24' E 004°60'0 0.0
2018-Jun-17 18:58N 43°24' E 004°60'0 0.0
2018-Jun-17 18:28N 43°24' E 004°60'0 0.0
2018-Jun-17 17:55N 43°24' E 004°60'0 0.0
2018-Jun-17 17:28N 43°24' E 004°60'0 0.0
2018-Jun-17 16:55N 43°24' E 004°60'0 0.0
2018-Jun-17 16:28N 43°24' E 004°60'1 2.1
2018-Jun-17 16:00N 43°23' E 004°59'1 1.8
2018-Jun-17 15:28N 43°23' E 004°57'0 0.1
2018-Jun-17 14:58N 43°23' E 004°57'0 0.0
2018-Jun-17 14:28N 43°23' E 004°57'0 0.0
2018-Jun-17 13:58N 43°23' E 004°57'0 0.0
2018-Jun-17 13:28N 43°23' E 004°57'0 0.0
2018-Jun-17 12:58N 43°23' E 004°57'0 0.1
2018-Jun-17 12:28N 43°23' E 004°57'0 0.1
2018-Jun-17 11:58N 43°23' E 004°57'0 0.0
2018-Jun-17 11:22N 43°23' E 004°57'0 0.0
2018-Jun-17 10:58N 43°23' E 004°57'0 0.0
2018-Jun-17 10:28N 43°23' E 004°57'0 0.0
2018-Jun-17 09:58N 43°23' E 004°57'0 0.0
2018-Jun-17 09:28N 43°23' E 004°57'0 0.0
2018-Jun-17 08:58N 43°23' E 004°57'0 0.0
2018-Jun-17 08:28N 43°23' E 004°57'0 0.0
2018-Jun-17 07:58N 43°23' E 004°57'0 0.0
2018-Jun-17 07:28N 43°23' E 004°57'0 0.0
2018-Jun-17 06:58N 43°23' E 004°57'0 0.0
2018-Jun-17 06:28N 43°23' E 004°57'0 0.0
2018-Jun-17 05:58N 43°23' E 004°57'0 0.0
2018-Jun-17 05:28N 43°23' E 004°57'0 0.0
2018-Jun-17 04:55N 43°23' E 004°57'0 0.0
2018-Jun-17 04:28N 43°23' E 004°57'0 0.0
2018-Jun-17 03:58N 43°23' E 004°57'0 0.0
2018-Jun-17 03:28N 43°23' E 004°57'0 0.0
2018-Jun-17 02:58N 43°23' E 004°57'0 0.0
2018-Jun-17 02:22N 43°23' E 004°57'0 0.0
2018-Jun-17 01:58N 43°23' E 004°57'0 0.0
2018-Jun-17 01:28N 43°23' E 004°57'0 0.0
2018-Jun-17 00:58N 43°23' E 004°57'0 0.0
2018-Jun-17 00:28N 43°23' E 004°57'0 0.0
2018-Jun-16 23:58N 43°23' E 004°57'0 0.0
2018-Jun-16 23:28N 43°23' E 004°57'0 0.0
2018-Jun-16 22:58N 43°23' E 004°57'0 0.0
2018-Jun-16 22:28N 43°23' E 004°57'0 0.1
2018-Jun-16 21:58N 43°23' E 004°57'0 0.0
2018-Jun-16 21:28N 43°23' E 004°57'0 0.0
2018-Jun-16 20:55N 43°23' E 004°57'0 0.0
2018-Jun-16 20:28N 43°23' E 004°57'0 0.1
2018-Jun-16 19:58N 43°23' E 004°57'0 0.0
2018-Jun-16 19:28N 43°23' E 004°57'0 0.0
2018-Jun-16 18:46N 43°23' E 004°57'0 0.0
2018-Jun-16 18:28N 43°23' E 004°57'0 0.0
2018-Jun-16 17:52N 43°23' E 004°57'0 0.0
2018-Jun-16 17:28N 43°23' E 004°57'0 0.1
2018-Jun-16 16:58N 43°23' E 004°57'0 0.0
2018-Jun-16 16:28N 43°23' E 004°57'0 0.0
2018-Jun-16 15:55N 43°23' E 004°57'0 0.0
2018-Jun-16 15:25N 43°23' E 004°57'0 0.0
2018-Jun-16 14:58N 43°23' E 004°57'0 0.0
2018-Jun-16 14:28N 43°23' E 004°57'0 0.0
2018-Jun-16 13:58N 43°23' E 004°57'0 0.0
2018-Jun-16 13:25N 43°23' E 004°57'0 0.0
2018-Jun-16 12:55N 43°23' E 004°57'0 0.0
2018-Jun-16 12:28N 43°23' E 004°57'0 0.0
2018-Jun-16 11:58N 43°23' E 004°57'0 0.0
2018-Jun-16 11:28N 43°23' E 004°57'0 0.0
2018-Jun-16 10:58N 43°23' E 004°57'0 0.1
2018-Jun-16 10:28N 43°23' E 004°57'0 0.0
2018-Jun-16 09:58N 43°23' E 004°57'0 0.0
2018-Jun-16 09:28N 43°23' E 004°57'0 0.1
2018-Jun-16 08:58N 43°23' E 004°57'0 0.0
2018-Jun-16 08:28N 43°23' E 004°57'0 0.0
2018-Jun-16 07:58N 43°23' E 004°57'0 0.0
2018-Jun-16 07:25N 43°23' E 004°57'0 0.0
2018-Jun-16 06:58N 43°23' E 004°57'0 0.0
2018-Jun-16 06:28N 43°23' E 004°57'0 0.0
2018-Jun-16 05:58N 43°23' E 004°57'0 0.0
2018-Jun-16 05:28N 43°23' E 004°57'0 0.1
2018-Jun-16 04:58N 43°23' E 004°57'0 0.0
2018-Jun-16 04:28N 43°23' E 004°57'0 0.0
2018-Jun-16 03:52N 43°23' E 004°57'0 0.0
2018-Jun-16 03:28N 43°23' E 004°57'0 0.0
2018-Jun-16 02:58N 43°23' E 004°57'0 0.0
2018-Jun-16 02:28N 43°23' E 004°57'0 0.0
2018-Jun-16 01:55N 43°23' E 004°57'0 0.0
2018-Jun-16 01:28N 43°23' E 004°57'0 0.0
2018-Jun-16 00:58N 43°23' E 004°57'0 0.0
2018-Jun-16 00:28N 43°23' E 004°57'0 0.0
2018-Jun-15 23:58N 43°23' E 004°57'0 0.0
2018-Jun-15 23:28N 43°23' E 004°57'0 0.0
2018-Jun-15 22:58N 43°23' E 004°57'0 0.0
2018-Jun-15 22:28N 43°23' E 004°57'0 0.0
2018-Jun-15 21:58N 43°23' E 004°57'0 0.0
2018-Jun-15 21:28N 43°23' E 004°57'0 0.0
2018-Jun-15 20:58N 43°23' E 004°57'0 0.0
2018-Jun-15 20:28N 43°23' E 004°57'0 0.0
2018-Jun-15 19:46N 43°23' E 004°57'0 0.0
2018-Jun-15 19:28N 43°23' E 004°57'0 0.0
2018-Jun-15 18:58N 43°23' E 004°57'0 0.0
2018-Jun-15 18:25N 43°23' E 004°57'0 0.0
2018-Jun-15 17:49N 43°23' E 004°57'0 0.0
2018-Jun-15 17:22N 43°23' E 004°57'0 0.0
2018-Jun-15 16:58N 43°23' E 004°57'0 0.0
2018-Jun-15 16:28N 43°23' E 004°57'0 0.0
2018-Jun-15 15:58N 43°23' E 004°57'0 0.0
2018-Jun-15 15:28N 43°23' E 004°57'0 0.0
2018-Jun-15 14:58N 43°23' E 004°57'0 0.0
2018-Jun-15 14:28N 43°23' E 004°57'0 0.0
2018-Jun-15 13:58N 43°23' E 004°57'0 0.0
2018-Jun-15 13:28N 43°23' E 004°57'0 0.0
2018-Jun-15 12:58N 43°23' E 004°57'0 0.0
2018-Jun-15 12:28N 43°23' E 004°57'0 0.0
2018-Jun-15 11:58N 43°23' E 004°57'0 0.0
2018-Jun-15 11:28N 43°23' E 004°57'0 0.0
2018-Jun-15 10:58N 43°23' E 004°57'0 0.1
2018-Jun-15 10:25N 43°23' E 004°57'0 0.0
2018-Jun-15 09:55N 43°23' E 004°57'0 0.0
2018-Jun-15 09:28N 43°23' E 004°57'0 0.0
2018-Jun-15 08:58N 43°23' E 004°57'0 0.0
2018-Jun-15 08:28N 43°23' E 004°57'0 0.0
2018-Jun-15 07:58N 43°23' E 004°57'0 0.0
2018-Jun-15 07:28N 43°23' E 004°57'0 0.0
2018-Jun-15 06:58N 43°23' E 004°57'0 0.0
2018-Jun-15 06:25N 43°23' E 004°57'0 0.1
2018-Jun-15 05:58N 43°23' E 004°57'0 0.0
2018-Jun-15 05:28N 43°23' E 004°57'0 0.0
2018-Jun-15 04:58N 43°23' E 004°57'0 0.0
2018-Jun-15 04:28N 43°23' E 004°57'0 0.0
2018-Jun-15 03:58N 43°23' E 004°57'0 0.0
2018-Jun-15 03:28N 43°23' E 004°57'0 0.0
2018-Jun-15 02:58N 43°23' E 004°57'0 0.0
2018-Jun-15 02:28N 43°23' E 004°57'0 0.0
2018-Jun-15 01:55N 43°23' E 004°57'0 0.0
2018-Jun-15 01:28N 43°23' E 004°57'0 0.0
2018-Jun-15 00:58N 43°23' E 004°57'0 0.0
2018-Jun-15 00:28N 43°23' E 004°57'0 0.0
2018-Jun-14 23:55N 43°23' E 004°57'0 0.0
2018-Jun-14 23:28N 43°23' E 004°57'0 0.0
2018-Jun-14 22:58N 43°23' E 004°57'0 0.0
2018-Jun-14 22:25N 43°23' E 004°57'0 0.0
2018-Jun-14 21:58N 43°23' E 004°57'0 0.0
2018-Jun-14 21:28N 43°23' E 004°57'0 0.0
2018-Jun-14 20:58N 43°23' E 004°57'0 0.0
2018-Jun-14 20:28N 43°23' E 004°57'0 0.0
2018-Jun-14 19:58N 43°23' E 004°57'0 0.0
2018-Jun-14 19:28N 43°23' E 004°57'0 0.0
2018-Jun-14 18:58N 43°23' E 004°57'0 0.0
2018-Jun-14 18:28N 43°23' E 004°57'0 0.0
2018-Jun-14 17:58N 43°23' E 004°57'0 0.0
2018-Jun-14 17:25N 43°23' E 004°57'0 0.1
2018-Jun-14 16:58N 43°23' E 004°57'0 0.1
2018-Jun-14 16:28N 43°23' E 004°57'0 0.0
2018-Jun-14 15:58N 43°23' E 004°57'0 0.0
2018-Jun-14 15:28N 43°23' E 004°57'0 0.0
2018-Jun-14 14:58N 43°23' E 004°57'0 0.0
2018-Jun-14 14:25N 43°23' E 004°57'0 0.0
2018-Jun-14 13:58N 43°23' E 004°57'0 0.0
2018-Jun-14 13:16N 43°23' E 004°57'0 0.0
2018-Jun-14 12:58N 43°23' E 004°57'0 0.0
2018-Jun-14 12:28N 43°23' E 004°57'0 0.0
2018-Jun-14 11:58N 43°23' E 004°57'0 0.0
2018-Jun-14 11:28N 43°23' E 004°57'0 0.0
2018-Jun-14 10:58N 43°23' E 004°57'0 0.0
2018-Jun-14 10:28N 43°23' E 004°57'0 0.0
2018-Jun-14 09:58N 43°23' E 004°57'0 0.0
2018-Jun-14 09:28N 43°23' E 004°57'0 0.0
2018-Jun-14 08:58N 43°23' E 004°57'0 0.0
2018-Jun-14 08:28N 43°23' E 004°57'0 0.0
2018-Jun-14 07:58N 43°23' E 004°57'0 0.0
2018-Jun-14 07:28N 43°23' E 004°57'0 0.0
2018-Jun-14 06:58N 43°23' E 004°57'0 0.0
2018-Jun-14 06:28N 43°23' E 004°57'0 0.0
2018-Jun-14 05:58N 43°23' E 004°57'0 0.0
2018-Jun-14 05:28N 43°23' E 004°57'0 0.0
2018-Jun-14 04:58N 43°23' E 004°57'0 0.0
2018-Jun-14 04:28N 43°23' E 004°57'0 0.0
2018-Jun-14 03:55N 43°23' E 004°57'0 0.0
2018-Jun-14 03:28N 43°23' E 004°57'0 0.0
2018-Jun-14 02:58N 43°23' E 004°57'0 0.0
2018-Jun-14 02:28N 43°23' E 004°57'0 0.0
2018-Jun-14 01:58N 43°23' E 004°57'0 0.0
2018-Jun-14 01:28N 43°23' E 004°57'0 0.0
2018-Jun-14 00:58N 43°23' E 004°57'0 0.0
2018-Jun-14 00:28N 43°23' E 004°57'0 0.0
2018-Jun-13 23:58N 43°23' E 004°57'0 0.0
2018-Jun-13 23:28N 43°23' E 004°57'0 0.0
2018-Jun-13 22:58N 43°23' E 004°57'0 0.0
2018-Jun-13 22:28N 43°23' E 004°57'0 0.0
2018-Jun-13 21:55N 43°23' E 004°57'0 0.0
2018-Jun-13 21:28N 43°23' E 004°57'0 0.0
2018-Jun-13 20:58N 43°23' E 004°57'0 0.0
2018-Jun-13 20:28N 43°23' E 004°57'0 0.0
2018-Jun-13 19:58N 43°23' E 004°57'0 0.0
2018-Jun-13 19:28N 43°23' E 004°57'0 0.0
2018-Jun-13 18:58N 43°23' E 004°57'0 0.1
2018-Jun-13 18:28N 43°23' E 004°57'0 0.1
2018-Jun-13 17:58N 43°23' E 004°57'0 0.0
2018-Jun-13 17:28N 43°23' E 004°57'0 0.0
2018-Jun-13 16:58N 43°23' E 004°57'0 0.1
2018-Jun-13 16:28N 43°23' E 004°57'0 0.0
2018-Jun-13 15:58N 43°23' E 004°57'0 0.0
2018-Jun-13 15:28N 43°23' E 004°57'0 0.0
2018-Jun-13 14:58N 43°23' E 004°57'0 0.0
2018-Jun-13 14:28N 43°23' E 004°57'0 0.1
2018-Jun-13 13:49N 43°23' E 004°57'0 0.2
2018-Jun-13 13:28N 43°23' E 004°57'0 0.0
2018-Jun-13 12:55N 43°23' E 004°57'0 0.0
2018-Jun-13 12:28N 43°23' E 004°57'0 0.0
2018-Jun-13 11:55N 43°23' E 004°57'0 0.1
2018-Jun-13 11:28N 43°23' E 004°57'0 0.0
2018-Jun-13 10:58N 43°23' E 004°57'0 0.0
2018-Jun-13 10:28N 43°23' E 004°57'0 0.0
2018-Jun-13 09:58N 43°23' E 004°57'0 0.0
2018-Jun-13 09:28N 43°23' E 004°57'0 0.0
2018-Jun-13 08:58N 43°23' E 004°57'0 0.1
2018-Jun-13 08:22N 43°23' E 004°57'0 0.0
2018-Jun-13 07:58N 43°23' E 004°57'0 0.0
2018-Jun-13 07:28N 43°23' E 004°57'0 0.0
2018-Jun-13 06:58N 43°23' E 004°57'0 0.0
2018-Jun-13 06:28N 43°23' E 004°57'0 0.0
2018-Jun-13 05:58N 43°23' E 004°57'0 0.0
2018-Jun-13 05:28N 43°23' E 004°57'0 0.1
2018-Jun-13 04:58N 43°23' E 004°57'0 0.0
2018-Jun-13 04:28N 43°23' E 004°57'0 0.0
2018-Jun-13 03:58N 43°23' E 004°57'0 0.0
2018-Jun-13 03:28N 43°23' E 004°57'  
Track history (hours):
 
Tides and Currents Weather Stations Pressure Air Temp Water Temp Dewpoint Dewpoint Depression Visibility Wind Speed Wind Dir Waves Ship Positions

Atria

Last reported at 2018-Jun-23 03:15 UTC. Time now 2018-Jun-23 12:24 UTC.
Position N 37°13' W 001°04'.

Length 184 m; draft 11.1 m.

Type: Tanker. MMSI: 226099000.

Date/timePositionNaut miles runAvg speedWind from/ knotsBaromVisibWave heightAir tempDewpointWater temp
2018-Jun-23 03:15N 37°13' W 001°04'312.4
2018-Jun-23 03:01N 37°15' W 001°01'612.6
2018-Jun-23 02:30N 37°19' W 000°55'712.9
2018-Jun-23 01:59N 37°23' W 000°49'613.1
2018-Jun-23 01:30N 37°28' W 000°43'612.8
2018-Jun-23 01:00N 37°32' W 000°37'612.6
2018-Jun-23 00:31N 37°36' W 000°31'712.8
2018-Jun-23 00:00N 37°42' W 000°26'612.7
2018-Jun-22 23:30N 37°47' W 000°22'612.8
2018-Jun-22 23:00N 37°52' W 000°17'612.9
2018-Jun-22 22:31N 37°57' W 000°13'1212.9
2018-Jun-22 21:36N 38°07' W 000°04'113.1
2018-Jun-22 21:31N 38°07' W 000°03'713.0
2018-Jun-22 21:00N 38°12' E 000°03'713.0
2018-Jun-22 20:27N 38°18' E 000°09'613.0
2018-Jun-22 20:00N 38°22' E 000°13'713.2
2018-Jun-22 19:30N 38°28' E 000°18'613.2
2018-Jun-22 19:00N 38°33' E 000°23'612.9
2018-Jun-22 18:30N 38°38' E 000°28'712.8
2018-Jun-22 17:57N 38°44' E 000°33'612.6
2018-Jun-22 17:30N 38°49' E 000°38'612.5
2018-Jun-22 17:00N 38°54' E 000°43'712.3
2018-Jun-22 16:27N 38°59' E 000°48'1512.5
2018-Jun-22 15:17N 39°10' E 000°59'512.7
2018-Jun-22 14:51N 39°15' E 001°03'412.7
2018-Jun-22 14:30N 39°18' E 001°07'712.8
2018-Jun-22 14:00N 39°24' E 001°12'2112.9
2018-Jun-22 12:23N 39°40' E 001°29'5113.0
2018-Jun-22 08:26N 40°21' E 002°08'713.0
2018-Jun-22 07:56N 40°26' E 002°14'712.8
2018-Jun-22 07:25N 40°32' E 002°19'612.5
2018-Jun-22 06:55N 40°37' E 002°24'713.0
2018-Jun-22 06:25N 40°42' E 002°29'613.2
2018-Jun-22 05:58N 40°47' E 002°33'613.1
2018-Jun-22 05:30N 40°51' E 002°38'612.8
2018-Jun-22 05:00N 40°57' E 002°44'612.8
2018-Jun-22 04:30N 41°02' E 002°49'713.0
2018-Jun-22 04:00N 41°07' E 002°54'713.2
2018-Jun-22 03:30N 41°12' E 002°59'713.1
2018-Jun-22 03:00N 41°17' E 003°04'613.1
2018-Jun-22 02:30N 41°23' E 003°10'612.9
2018-Jun-22 02:00N 41°28' E 003°15'612.7
2018-Jun-22 01:31N 41°33' E 003°20'612.9
2018-Jun-22 01:00N 41°38' E 003°25'8613.1
2018-Jun-21 18:25N 42°47' E 004°35'612.9
2018-Jun-21 17:59N 42°51' E 004°40'612.8
2018-Jun-21 17:30N 42°56' E 004°45'612.7
2018-Jun-21 17:00N 43°01' E 004°50'612.3
2018-Jun-21 16:31N 43°06' E 004°55'2 4.6
2018-Jun-21 16:01N 43°08' E 004°57'5 9.7
2018-Jun-21 15:30N 43°12' E 005°01'612.8
2018-Jun-21 15:01N 43°18' E 004°59'510.0
2018-Jun-21 14:30N 43°23' E 004°58'1 2.5
2018-Jun-21 14:00N 43°24' E 004°60'0 0.0
2018-Jun-21 13:28N 43°24' E 004°60'0 0.0
2018-Jun-21 12:55N 43°24' E 004°60'0 0.0
2018-Jun-21 12:28N 43°24' E 004°60'0 0.0
2018-Jun-21 11:58N 43°24' E 004°60'0 0.0
2018-Jun-21 11:28N 43°24' E 004°60'0 0.0
2018-Jun-21 10:58N 43°24' E 004°60'0 0.0
2018-Jun-21 10:28N 43°24' E 004°60'0 0.0
2018-Jun-21 09:58N 43°24' E 004°60'0 0.0
2018-Jun-21 09:28N 43°24' E 004°60'0 0.0
2018-Jun-21 08:46N 43°24' E 004°60'0 0.0
2018-Jun-21 08:28N 43°24' E 004°60'0 0.0
2018-Jun-21 07:58N 43°24' E 004°60'0 0.0
2018-Jun-21 07:25N 43°24' E 004°60'0 0.0
2018-Jun-21 06:58N 43°24' E 004°60'0 0.0
2018-Jun-21 06:28N 43°24' E 004°60'0 0.0
2018-Jun-21 05:58N 43°24' E 004°60'0 0.0
2018-Jun-21 05:28N 43°24' E 004°60'0 0.0
2018-Jun-21 04:58N 43°24' E 004°60'0 0.0
2018-Jun-21 04:28N 43°24' E 004°60'0 0.0
2018-Jun-21 03:58N 43°24' E 004°60'0 0.0
2018-Jun-21 03:28N 43°24' E 004°60'0 0.0
2018-Jun-21 02:58N 43°24' E 004°60'0 0.0
2018-Jun-21 02:28N 43°24' E 004°60'0 0.0
2018-Jun-21 01:58N 43°24' E 004°60'0 0.0
2018-Jun-21 01:28N 43°24' E 004°60'0 0.0
2018-Jun-21 00:58N 43°24' E 004°60'0 0.0
2018-Jun-21 00:28N 43°24' E 004°60'0 0.0
2018-Jun-20 23:58N 43°24' E 004°60'0 0.0
2018-Jun-20 23:28N 43°24' E 004°60'0 0.0
2018-Jun-20 22:58N 43°24' E 004°60'0 0.0
2018-Jun-20 22:25N 43°24' E 004°60'0 0.0
2018-Jun-20 21:58N 43°24' E 004°60'0 0.0
2018-Jun-20 21:28N 43°24' E 004°60'0 0.0
2018-Jun-20 20:58N 43°24' E 004°60'0 0.0
2018-Jun-20 20:25N 43°24' E 004°60'0 0.0
2018-Jun-20 19:55N 43°24' E 004°60'0 0.0
2018-Jun-20 19:28N 43°24' E 004°60'0 0.0
2018-Jun-20 18:55N 43°24' E 004°60'0 0.0
2018-Jun-20 18:28N 43°24' E 004°60'0 0.0
2018-Jun-20 17:55N 43°24' E 004°60'0 0.0
2018-Jun-20 17:28N 43°24' E 004°60'0 0.0
2018-Jun-20 16:58N 43°24' E 004°60'0 0.0
2018-Jun-20 16:25N 43°24' E 004°60'0 0.0
2018-Jun-20 15:55N 43°24' E 004°60'0 0.0
2018-Jun-20 15:25N 43°24' E 004°60'0 0.0
2018-Jun-20 14:55N 43°24' E 004°60'0 0.0
2018-Jun-20 14:28N 43°24' E 004°60'0 0.0
2018-Jun-20 13:58N 43°24' E 004°60'0 0.0
2018-Jun-20 13:28N 43°24' E 004°60'0 0.0
2018-Jun-20 12:55N 43°24' E 004°60'0 0.0
2018-Jun-20 12:28N 43°24' E 004°60'0 0.0
2018-Jun-20 11:58N 43°24' E 004°60'0 0.0
2018-Jun-20 11:25N 43°24' E 004°60'0 0.0
2018-Jun-20 10:58N 43°24' E 004°60'0 0.0
2018-Jun-20 10:28N 43°24' E 004°60'0 0.0
2018-Jun-20 09:58N 43°24' E 004°60'0 0.0
2018-Jun-20 09:25N 43°24' E 004°60'0 0.0
2018-Jun-20 08:58N 43°24' E 004°60'0 0.0
2018-Jun-20 08:28N 43°24' E 004°60'0 0.0
2018-Jun-20 07:58N 43°24' E 004°60'0 0.0
2018-Jun-20 07:28N 43°24' E 004°60'0 0.0
2018-Jun-20 06:58N 43°24' E 004°60'0 0.0
2018-Jun-20 06:28N 43°24' E 004°60'0 0.0
2018-Jun-20 05:58N 43°24' E 004°60'0 0.0
2018-Jun-20 05:28N 43°24' E 004°60'0 0.0
2018-Jun-20 04:58N 43°24' E 004°60'0 0.0
2018-Jun-20 04:25N 43°24' E 004°60'0 0.0
2018-Jun-20 03:58N 43°24' E 004°60'0 0.0
2018-Jun-20 03:28N 43°24' E 004°60'0 0.0
2018-Jun-20 02:55N 43°24' E 004°60'0 0.0
2018-Jun-20 02:28N 43°24' E 004°60'0 0.0
2018-Jun-20 01:58N 43°24' E 004°60'0 0.0
2018-Jun-20 01:28N 43°24' E 004°60'0 0.0
2018-Jun-20 00:58N 43°24' E 004°60'0 0.0
2018-Jun-20 00:28N 43°24' E 004°60'0 0.0
2018-Jun-19 23:55N 43°24' E 004°60'0 0.0
2018-Jun-19 23:28N 43°24' E 004°60'0 0.0
2018-Jun-19 22:55N 43°24' E 004°60'0 0.0
2018-Jun-19 22:25N 43°24' E 004°60'0 0.0
2018-Jun-19 21:55N 43°24' E 004°60'0 0.0
2018-Jun-19 21:25N 43°24' E 004°60'0 0.0
2018-Jun-19 20:58N 43°24' E 004°60'0 0.0
2018-Jun-19 20:28N 43°24' E 004°60'0 0.0
2018-Jun-19 19:58N 43°24' E 004°60'0 0.0
2018-Jun-19 19:25N 43°24' E 004°60'0 0.0
2018-Jun-19 18:58N 43°24' E 004°60'0 0.0
2018-Jun-19 18:25N 43°24' E 004°60'0 0.0
2018-Jun-19 17:58N 43°24' E 004°60'0 0.0
2018-Jun-19 17:28N 43°24' E 004°60'0 0.0
2018-Jun-19 16:58N 43°24' E 004°60'0 0.0
2018-Jun-19 16:28N 43°24' E 004°60'0 0.0
2018-Jun-19 15:58N 43°24' E 004°60'0 0.0
2018-Jun-19 15:28N 43°24' E 004°60'0 0.0
2018-Jun-19 14:58N 43°24' E 004°60'0 0.0
2018-Jun-19 14:28N 43°24' E 004°60'0 0.0
2018-Jun-19 13:55N 43°24' E 004°60'0 0.0
2018-Jun-19 13:28N 43°24' E 004°60'0 0.0
2018-Jun-19 12:55N 43°24' E 004°60'0 0.0
2018-Jun-19 12:28N 43°24' E 004°60'0 0.0
2018-Jun-19 11:58N 43°24' E 004°60'0 0.0
2018-Jun-19 11:28N 43°24' E 004°60'0 0.0
2018-Jun-19 10:58N 43°24' E 004°60'0 0.0
2018-Jun-19 10:28N 43°24' E 004°60'0 0.0
2018-Jun-19 09:58N 43°24' E 004°60'0 0.0
2018-Jun-19 09:28N 43°24' E 004°60'0 0.0
2018-Jun-19 08:55N 43°24' E 004°60'0 0.0
2018-Jun-19 08:28N 43°24' E 004°60'0 0.0
2018-Jun-19 07:58N 43°24' E 004°60'0 0.0
2018-Jun-19 07:28N 43°24' E 004°60'0 0.0
2018-Jun-19 06:55N 43°24' E 004°60'0 0.0
2018-Jun-19 06:25N 43°24' E 004°60'0 0.0
2018-Jun-19 05:58N 43°24' E 004°60'0 0.0
2018-Jun-19 05:28N 43°24' E 004°60'0 0.0
2018-Jun-19 04:55N 43°24' E 004°60'0 0.0
2018-Jun-19 04:28N 43°24' E 004°60'0 0.0
2018-Jun-19 03:55N 43°24' E 004°60'0 0.0
2018-Jun-19 03:28N 43°24' E 004°60'0 0.0
2018-Jun-19 02:58N 43°24' E 004°60'0 0.0
2018-Jun-19 02:28N 43°24' E 004°60'0 0.0
2018-Jun-19 01:58N 43°24' E 004°60'0 0.0
2018-Jun-19 01:28N 43°24' E 004°60'0 0.0
2018-Jun-19 00:58N 43°24' E 004°60'0 0.0
2018-Jun-19 00:28N 43°24' E 004°60'0 0.0
2018-Jun-18 23:58N 43°24' E 004°60'0 0.0
2018-Jun-18 23:25N 43°24' E 004°60'0 0.0
2018-Jun-18 22:55N 43°24' E 004°60'0 0.0
2018-Jun-18 22:28N 43°24' E 004°60'0 0.0
2018-Jun-18 21:58N 43°24' E 004°60'0 0.0
2018-Jun-18 21:28N 43°24' E 004°60'0 0.0
2018-Jun-18 20:58N 43°24' E 004°60'0 0.0
2018-Jun-18 20:28N 43°24' E 004°60'0 0.0
2018-Jun-18 19:58N 43°24' E 004°60'0 0.0
2018-Jun-18 19:28N 43°24' E 004°60'0 0.0
2018-Jun-18 18:55N 43°24' E 004°60'0 0.0
2018-Jun-18 18:28N 43°24' E 004°60'0 0.0
2018-Jun-18 17:55N 43°24' E 004°60'0 0.0
2018-Jun-18 17:28N 43°24' E 004°60'0 0.0
2018-Jun-18 16:58N 43°24' E 004°60'0 0.0
2018-Jun-18 16:28N 43°24' E 004°60'0 0.0
2018-Jun-18 15:58N 43°24' E 004°60'0 0.0
2018-Jun-18 15:19N 43°24' E 004°60'0 0.0
2018-Jun-18 14:58N 43°24' E 004°60'0 0.0
2018-Jun-18 14:28N 43°24' E 004°60'0 0.0
2018-Jun-18 13:58N 43°24' E 004°60'0 0.0
2018-Jun-18 13:28N 43°24' E 004°60'0 0.0
2018-Jun-18 12:58N 43°24' E 004°60'0 0.0
2018-Jun-18 12:28N 43°24' E 004°60'0 0.0
2018-Jun-18 11:55N 43°24' E 004°60'0 0.0
2018-Jun-18 11:25N 43°24' E 004°60'0 0.0
2018-Jun-18 10:58N 43°24' E 004°60'0 0.0
2018-Jun-18 10:25N 43°24' E 004°60'0 0.0
2018-Jun-18 09:58N 43°24' E 004°60'0 0.0
2018-Jun-18 09:25N 43°24' E 004°60'0 0.0
2018-Jun-18 08:58N 43°24' E 004°60'0 0.0
2018-Jun-18 08:28N 43°24' E 004°60'0 0.0
2018-Jun-18 07:58N 43°24' E 004°60'0 0.0
2018-Jun-18 07:28N 43°24' E 004°60'0 0.0
2018-Jun-18 06:58N 43°24' E 004°60'0 0.0
2018-Jun-18 06:28N 43°24' E 004°60'0 0.0
2018-Jun-18 05:58N 43°24' E 004°60'0 0.0
2018-Jun-18 05:28N 43°24' E 004°60'0 0.0
2018-Jun-18 04:55N 43°24' E 004°60'0 0.0
2018-Jun-18 04:25N 43°24' E 004°60'0 0.0
2018-Jun-18 03:58N 43°24' E 004°60'0 0.0
2018-Jun-18 03:28N 43°24' E 004°60'0 0.0
2018-Jun-18 02:58N 43°24' E 004°60'0 0.0
2018-Jun-18 02:28N 43°24' E 004°60'0 0.0
2018-Jun-18 01:58N 43°24' E 004°60'0 0.0
2018-Jun-18 01:25N 43°24' E 004°60'0 0.0
2018-Jun-18 00:58N 43°24' E 004°60'0 0.0
2018-Jun-18 00:28N 43°24' E 004°60'0 0.0
2018-Jun-17 23:58N 43°24' E 004°60'0 0.0
2018-Jun-17 23:28N 43°24' E 004°60'0 0.0
2018-Jun-17 22:58N 43°24' E 004°60'0 0.0
2018-Jun-17 22:28N 43°24' E 004°60'0 0.0
2018-Jun-17 21:58N 43°24' E 004°60'0 0.0
2018-Jun-17 21:28N 43°24' E 004°60'0 0.0
2018-Jun-17 20:58N 43°24' E 004°60'0 0.0
2018-Jun-17 20:28N 43°24' E 004°60'0 0.0
2018-Jun-17 19:58N 43°24' E 004°60'0 0.0
2018-Jun-17 19:28N 43°24' E 004°60'0 0.0
2018-Jun-17 18:58N 43°24' E 004°60'0 0.0
2018-Jun-17 18:28N 43°24' E 004°60'0 0.0
2018-Jun-17 17:55N 43°24' E 004°60'0 0.0
2018-Jun-17 17:28N 43°24' E 004°60'0 0.0
2018-Jun-17 16:55N 43°24' E 004°60'0 0.0
2018-Jun-17 16:28N 43°24' E 004°60'1 2.1
2018-Jun-17 16:00N 43°23' E 004°59'1 1.8
2018-Jun-17 15:28N 43°23' E 004°57'0 0.1
2018-Jun-17 14:58N 43°23' E 004°57'0 0.0
2018-Jun-17 14:28N 43°23' E 004°57'0 0.0
2018-Jun-17 13:58N 43°23' E 004°57'0 0.0
2018-Jun-17 13:28N 43°23' E 004°57'0 0.0
2018-Jun-17 12:58N 43°23' E 004°57'0 0.1
2018-Jun-17 12:28N 43°23' E 004°57'0 0.1
2018-Jun-17 11:58N 43°23' E 004°57'0 0.0
2018-Jun-17 11:22N 43°23' E 004°57'0 0.0
2018-Jun-17 10:58N 43°23' E 004°57'0 0.0
2018-Jun-17 10:28N 43°23' E 004°57'0 0.0
2018-Jun-17 09:58N 43°23' E 004°57'0 0.0
2018-Jun-17 09:28N 43°23' E 004°57'0 0.0
2018-Jun-17 08:58N 43°23' E 004°57'0 0.0
2018-Jun-17 08:28N 43°23' E 004°57'0 0.0
2018-Jun-17 07:58N 43°23' E 004°57'0 0.0
2018-Jun-17 07:28N 43°23' E 004°57'0 0.0
2018-Jun-17 06:58N 43°23' E 004°57'0 0.0
2018-Jun-17 06:28N 43°23' E 004°57'0 0.0
2018-Jun-17 05:58N 43°23' E 004°57'0 0.0
2018-Jun-17 05:28N 43°23' E 004°57'0 0.0
2018-Jun-17 04:55N 43°23' E 004°57'0 0.0
2018-Jun-17 04:28N 43°23' E 004°57'0 0.0
2018-Jun-17 03:58N 43°23' E 004°57'0 0.0
2018-Jun-17 03:28N 43°23' E 004°57'0 0.0
2018-Jun-17 02:58N 43°23' E 004°57'0 0.0
2018-Jun-17 02:22N 43°23' E 004°57'0 0.0
2018-Jun-17 01:58N 43°23' E 004°57'0 0.0
2018-Jun-17 01:28N 43°23' E 004°57'0 0.0
2018-Jun-17 00:58N 43°23' E 004°57'0 0.0
2018-Jun-17 00:28N 43°23' E 004°57'0 0.0
2018-Jun-16 23:58N 43°23' E 004°57'0 0.0
2018-Jun-16 23:28N 43°23' E 004°57'0 0.0
2018-Jun-16 22:58N 43°23' E 004°57'0 0.0
2018-Jun-16 22:28N 43°23' E 004°57'0 0.1
2018-Jun-16 21:58N 43°23' E 004°57'0 0.0
2018-Jun-16 21:28N 43°23' E 004°57'0 0.0
2018-Jun-16 20:55N 43°23' E 004°57'0 0.0
2018-Jun-16 20:28N 43°23' E 004°57'0 0.1
2018-Jun-16 19:58N 43°23' E 004°57'0 0.0
2018-Jun-16 19:28N 43°23' E 004°57'0 0.0
2018-Jun-16 18:46N 43°23' E 004°57'0 0.0
2018-Jun-16 18:28N 43°23' E 004°57'0 0.0
2018-Jun-16 17:52N 43°23' E 004°57'0 0.0
2018-Jun-16 17:28N 43°23' E 004°57'0 0.1
2018-Jun-16 16:58N 43°23' E 004°57'0 0.0
2018-Jun-16 16:28N 43°23' E 004°57'0 0.0
2018-Jun-16 15:55N 43°23' E 004°57'0 0.0
2018-Jun-16 15:25N 43°23' E 004°57'0 0.0
2018-Jun-16 14:58N 43°23' E 004°57'0 0.0
2018-Jun-16 14:28N 43°23' E 004°57'0 0.0
2018-Jun-16 13:58N 43°23' E 004°57'0 0.0
2018-Jun-16 13:25N 43°23' E 004°57'0 0.0
2018-Jun-16 12:55N 43°23' E 004°57'0 0.0
2018-Jun-16 12:28N 43°23' E 004°57'0 0.0
2018-Jun-16 11:58N 43°23' E 004°57'0 0.0
2018-Jun-16 11:28N 43°23' E 004°57'0 0.0
2018-Jun-16 10:58N 43°23' E 004°57'0 0.1
2018-Jun-16 10:28N 43°23' E 004°57'0 0.0
2018-Jun-16 09:58N 43°23' E 004°57'0 0.0
2018-Jun-16 09:28N 43°23' E 004°57'0 0.1
2018-Jun-16 08:58N 43°23' E 004°57'0 0.0
2018-Jun-16 08:28N 43°23' E 004°57'0 0.0
2018-Jun-16 07:58N 43°23' E 004°57'0 0.0
2018-Jun-16 07:25N 43°23' E 004°57'0 0.0
2018-Jun-16 06:58N 43°23' E 004°57'0 0.0
2018-Jun-16 06:28N 43°23' E 004°57'0 0.0
2018-Jun-16 05:58N 43°23' E 004°57'0 0.0
2018-Jun-16 05:28N 43°23' E 004°57'0 0.1
2018-Jun-16 04:58N 43°23' E 004°57'0 0.0
2018-Jun-16 04:28N 43°23' E 004°57'0 0.0
2018-Jun-16 03:52N 43°23' E 004°57'0 0.0
2018-Jun-16 03:28N 43°23' E 004°57'0 0.0
2018-Jun-16 02:58N 43°23' E 004°57'0 0.0
2018-Jun-16 02:28N 43°23' E 004°57'0 0.0
2018-Jun-16 01:55N 43°23' E 004°57'0 0.0
2018-Jun-16 01:28N 43°23' E 004°57'0 0.0
2018-Jun-16 00:58N 43°23' E 004°57'0 0.0
2018-Jun-16 00:28N 43°23' E 004°57'0 0.0
2018-Jun-15 23:58N 43°23' E 004°57'0 0.0
2018-Jun-15 23:28N 43°23' E 004°57'0 0.0
2018-Jun-15 22:58N 43°23' E 004°57'0 0.0
2018-Jun-15 22:28N 43°23' E 004°57'0 0.0
2018-Jun-15 21:58N 43°23' E 004°57'0 0.0
2018-Jun-15 21:28N 43°23' E 004°57'0 0.0
2018-Jun-15 20:58N 43°23' E 004°57'0 0.0
2018-Jun-15 20:28N 43°23' E 004°57'0 0.0
2018-Jun-15 19:46N 43°23' E 004°57'0 0.0
2018-Jun-15 19:28N 43°23' E 004°57'0 0.0
2018-Jun-15 18:58N 43°23' E 004°57'0 0.0
2018-Jun-15 18:25N 43°23' E 004°57'0 0.0
2018-Jun-15 17:49N 43°23' E 004°57'0 0.0
2018-Jun-15 17:22N 43°23' E 004°57'0 0.0
2018-Jun-15 16:58N 43°23' E 004°57'0 0.0
2018-Jun-15 16:28N 43°23' E 004°57'0 0.0
2018-Jun-15 15:58N 43°23' E 004°57'0 0.0
2018-Jun-15 15:28N 43°23' E 004°57'0 0.0
2018-Jun-15 14:58N 43°23' E 004°57'0 0.0
2018-Jun-15 14:28N 43°23' E 004°57'0 0.0
2018-Jun-15 13:58N 43°23' E 004°57'0 0.0
2018-Jun-15 13:28N 43°23' E 004°57'0 0.0
2018-Jun-15 12:58N 43°23' E 004°57'0 0.0
2018-Jun-15 12:28N 43°23' E 004°57'0 0.0
2018-Jun-15 11:58N 43°23' E 004°57'0 0.0
2018-Jun-15 11:28N 43°23' E 004°57'0 0.0
2018-Jun-15 10:58N 43°23' E 004°57'0 0.1
2018-Jun-15 10:25N 43°23' E 004°57'0 0.0
2018-Jun-15 09:55N 43°23' E 004°57'0 0.0
2018-Jun-15 09:28N 43°23' E 004°57'0 0.0
2018-Jun-15 08:58N 43°23' E 004°57'0 0.0
2018-Jun-15 08:28N 43°23' E 004°57'0 0.0
2018-Jun-15 07:58N 43°23' E 004°57'0 0.0
2018-Jun-15 07:28N 43°23' E 004°57'0 0.0
2018-Jun-15 06:58N 43°23' E 004°57'0 0.0
2018-Jun-15 06:25N 43°23' E 004°57'0 0.1
2018-Jun-15 05:58N 43°23' E 004°57'0 0.0
2018-Jun-15 05:28N 43°23' E 004°57'0 0.0
2018-Jun-15 04:58N 43°23' E 004°57'0 0.0
2018-Jun-15 04:28N 43°23' E 004°57'0 0.0
2018-Jun-15 03:58N 43°23' E 004°57'0 0.0
2018-Jun-15 03:28N 43°23' E 004°57'0 0.0
2018-Jun-15 02:58N 43°23' E 004°57'0 0.0
2018-Jun-15 02:28N 43°23' E 004°57'0 0.0
2018-Jun-15 01:55N 43°23' E 004°57'0 0.0
2018-Jun-15 01:28N 43°23' E 004°57'0 0.0
2018-Jun-15 00:58N 43°23' E 004°57'0 0.0
2018-Jun-15 00:28N 43°23' E 004°57'0 0.0
2018-Jun-14 23:55N 43°23' E 004°57'0 0.0
2018-Jun-14 23:28N 43°23' E 004°57'0 0.0
2018-Jun-14 22:58N 43°23' E 004°57'0 0.0
2018-Jun-14 22:25N 43°23' E 004°57'0 0.0
2018-Jun-14 21:58N 43°23' E 004°57'0 0.0
2018-Jun-14 21:28N 43°23' E 004°57'0 0.0
2018-Jun-14 20:58N 43°23' E 004°57'0 0.0
2018-Jun-14 20:28N 43°23' E 004°57'0 0.0
2018-Jun-14 19:58N 43°23' E 004°57'0 0.0
2018-Jun-14 19:28N 43°23' E 004°57'0 0.0
2018-Jun-14 18:58N 43°23' E 004°57'0 0.0
2018-Jun-14 18:28N 43°23' E 004°57'0 0.0
2018-Jun-14 17:58N 43°23' E 004°57'0 0.0
2018-Jun-14 17:25N 43°23' E 004°57'0 0.1
2018-Jun-14 16:58N 43°23' E 004°57'0 0.1
2018-Jun-14 16:28N 43°23' E 004°57'0 0.0
2018-Jun-14 15:58N 43°23' E 004°57'0 0.0
2018-Jun-14 15:28N 43°23' E 004°57'0 0.0
2018-Jun-14 14:58N 43°23' E 004°57'0 0.0
2018-Jun-14 14:25N 43°23' E 004°57'0 0.0
2018-Jun-14 13:58N 43°23' E 004°57'0 0.0
2018-Jun-14 13:16N 43°23' E 004°57'0 0.0
2018-Jun-14 12:58N 43°23' E 004°57'0 0.0
2018-Jun-14 12:28N 43°23' E 004°57'0 0.0
2018-Jun-14 11:58N 43°23' E 004°57'0 0.0
2018-Jun-14 11:28N 43°23' E 004°57'0 0.0
2018-Jun-14 10:58N 43°23' E 004°57'0 0.0
2018-Jun-14 10:28N 43°23' E 004°57'0 0.0
2018-Jun-14 09:58N 43°23' E 004°57'0 0.0
2018-Jun-14 09:28N 43°23' E 004°57'0 0.0
2018-Jun-14 08:58N 43°23' E 004°57'0 0.0
2018-Jun-14 08:28N 43°23' E 004°57'0 0.0
2018-Jun-14 07:58N 43°23' E 004°57'0 0.0
2018-Jun-14 07:28N 43°23' E 004°57'0 0.0
2018-Jun-14 06:58N 43°23' E 004°57'0 0.0
2018-Jun-14 06:28N 43°23' E 004°57'0 0.0
2018-Jun-14 05:58N 43°23' E 004°57'0 0.0
2018-Jun-14 05:28N 43°23' E 004°57'0 0.0
2018-Jun-14 04:58N 43°23' E 004°57'0 0.0
2018-Jun-14 04:28N 43°23' E 004°57'0 0.0
2018-Jun-14 03:55N 43°23' E 004°57'0 0.0
2018-Jun-14 03:28N 43°23' E 004°57'0 0.0
2018-Jun-14 02:58N 43°23' E 004°57'0 0.0
2018-Jun-14 02:28N 43°23' E 004°57'0 0.0
2018-Jun-14 01:58N 43°23' E 004°57'0 0.0
2018-Jun-14 01:28N 43°23' E 004°57'0 0.0
2018-Jun-14 00:58N 43°23' E 004°57'0 0.0
2018-Jun-14 00:28N 43°23' E 004°57'0 0.0
2018-Jun-13 23:58N 43°23' E 004°57'0 0.0
2018-Jun-13 23:28N 43°23' E 004°57'0 0.0
2018-Jun-13 22:58N 43°23' E 004°57'0 0.0
2018-Jun-13 22:28N 43°23' E 004°57'0 0.0
2018-Jun-13 21:55N 43°23' E 004°57'0 0.0
2018-Jun-13 21:28N 43°23' E 004°57'0 0.0
2018-Jun-13 20:58N 43°23' E 004°57'0 0.0
2018-Jun-13 20:28N 43°23' E 004°57'0 0.0
2018-Jun-13 19:58N 43°23' E 004°57'0 0.0
2018-Jun-13 19:28N 43°23' E 004°57'0 0.0
2018-Jun-13 18:58N 43°23' E 004°57'0 0.1
2018-Jun-13 18:28N 43°23' E 004°57'0 0.1
2018-Jun-13 17:58N 43°23' E 004°57'0 0.0
2018-Jun-13 17:28N 43°23' E 004°57'0 0.0
2018-Jun-13 16:58N 43°23' E 004°57'0 0.1
2018-Jun-13 16:28N 43°23' E 004°57'0 0.0
2018-Jun-13 15:58N 43°23' E 004°57'0 0.0
2018-Jun-13 15:28N 43°23' E 004°57'0 0.0
2018-Jun-13 14:58N 43°23' E 004°57'0 0.0
2018-Jun-13 14:28N 43°23' E 004°57'0 0.1
2018-Jun-13 13:49N 43°23' E 004°57'0 0.2
2018-Jun-13 13:28N 43°23' E 004°57'0 0.0
2018-Jun-13 12:55N 43°23' E 004°57'0 0.0
2018-Jun-13 12:28N 43°23' E 004°57'0 0.0
2018-Jun-13 11:55N 43°23' E 004°57'0 0.1
2018-Jun-13 11:28N 43°23' E 004°57'0 0.0
2018-Jun-13 10:58N 43°23' E 004°57'0 0.0
2018-Jun-13 10:28N 43°23' E 004°57'0 0.0
2018-Jun-13 09:58N 43°23' E 004°57'0 0.0
2018-Jun-13 09:28N 43°23' E 004°57'0 0.0
2018-Jun-13 08:58N 43°23' E 004°57'0 0.1
2018-Jun-13 08:22N 43°23' E 004°57'0 0.0
2018-Jun-13 07:58N 43°23' E 004°57'0 0.0
2018-Jun-13 07:28N 43°23' E 004°57'0 0.0
2018-Jun-13 06:58N 43°23' E 004°57'0 0.0
2018-Jun-13 06:28N 43°23' E 004°57'0 0.0
2018-Jun-13 05:58N 43°23' E 004°57'0 0.0
2018-Jun-13 05:28N 43°23' E 004°57'0 0.1
2018-Jun-13 04:58N 43°23' E 004°57'0 0.0
2018-Jun-13 04:28N 43°23' E 004°57'0 0.0
2018-Jun-13 03:58N 43°23' E 004°57'0 0.0
2018-Jun-13 03:28N 43°23' E 004°57'  

Dump ship's entire track history